sensor_id;sensor_type;location;lat;lon;timestamp;pressure;altitude;pressure_sealevel;temperature;humidity
50349;BME280;36250;48.740;22.174;2024-03-08T00:01:52;100934.31;;;8.10;53.58
50349;BME280;36250;48.740;22.174;2024-03-08T00:04:18;100932.63;;;8.15;53.52
50349;BME280;36250;48.740;22.174;2024-03-08T00:06:43;100936.81;;;8.11;53.23
50349;BME280;36250;48.740;22.174;2024-03-08T00:09:13;100926.00;;;8.05;53.29
50349;BME280;36250;48.740;22.174;2024-03-08T00:11:39;100927.25;;;8.02;53.67
50349;BME280;36250;48.740;22.174;2024-03-08T00:14:04;100928.47;;;8.13;53.66
50349;BME280;36250;48.740;22.174;2024-03-08T00:16:32;100929.34;;;8.07;53.71
50349;BME280;36250;48.740;22.174;2024-03-08T00:18:58;100924.09;;;8.12;52.96
50349;BME280;36250;48.740;22.174;2024-03-08T00:21:23;100930.09;;;8.20;53.41
50349;BME280;36250;48.740;22.174;2024-03-08T00:23:49;100924.53;;;8.02;53.69
50349;BME280;36250;48.740;22.174;2024-03-08T00:26:14;100924.44;;;8.22;53.69
50349;BME280;36250;48.740;22.174;2024-03-08T00:28:40;100920.47;;;8.31;53.51
50349;BME280;36250;48.740;22.174;2024-03-08T00:31:05;100920.59;;;8.42;53.47
50349;BME280;36250;48.740;22.174;2024-03-08T00:33:32;100912.03;;;8.45;52.95
50349;BME280;36250;48.740;22.174;2024-03-08T00:35:57;100918.13;;;8.41;53.53
50349;BME280;36250;48.740;22.174;2024-03-08T00:38:23;100912.91;;;8.39;53.47
50349;BME280;36250;48.740;22.174;2024-03-08T00:40:48;100908.97;;;8.35;53.77
50349;BME280;36250;48.740;22.174;2024-03-08T00:43:13;100917.97;;;8.29;54.41
50349;BME280;36250;48.740;22.174;2024-03-08T00:45:40;100913.38;;;8.30;54.60
50349;BME280;36250;48.740;22.174;2024-03-08T00:48:08;100914.22;;;8.30;54.28
50349;BME280;36250;48.740;22.174;2024-03-08T00:50:33;100910.41;;;8.38;54.14
50349;BME280;36250;48.740;22.174;2024-03-08T00:52:59;100909.94;;;8.47;54.28
50349;BME280;36250;48.740;22.174;2024-03-08T00:55:25;100904.88;;;8.51;54.09
50349;BME280;36250;48.740;22.174;2024-03-08T00:57:50;100906.78;;;8.50;54.73
50349;BME280;36250;48.740;22.174;2024-03-08T01:00:16;100902.75;;;8.59;54.24
50349;BME280;36250;48.740;22.174;2024-03-08T01:02:42;100905.69;;;8.58;54.46
50349;BME280;36250;48.740;22.174;2024-03-08T01:05:07;100905.69;;;8.58;55.13
50349;BME280;36250;48.740;22.174;2024-03-08T01:07:34;100900.91;;;8.53;55.51
50349;BME280;36250;48.740;22.174;2024-03-08T01:10:01;100899.44;;;8.51;55.69
50349;BME280;36250;48.740;22.174;2024-03-08T01:12:26;100903.34;;;8.62;55.45
50349;BME280;36250;48.740;22.174;2024-03-08T01:14:51;100894.00;;;8.57;55.54
50349;BME280;36250;48.740;22.174;2024-03-08T01:17:17;100894.94;;;8.70;55.15
50349;BME280;36250;48.740;22.174;2024-03-08T01:19:42;100893.06;;;8.70;55.36
50349;BME280;36250;48.740;22.174;2024-03-08T01:22:10;100890.72;;;8.74;55.24
50349;BME280;36250;48.740;22.174;2024-03-08T01:24:35;100885.47;;;8.79;55.05
50349;BME280;36250;48.740;22.174;2024-03-08T01:27:01;100885.03;;;8.82;55.35
50349;BME280;36250;48.740;22.174;2024-03-08T01:29:27;100890.91;;;8.79;55.44
50349;BME280;36250;48.740;22.174;2024-03-08T01:31:55;100885.41;;;8.85;55.37
50349;BME280;36250;48.740;22.174;2024-03-08T01:34:20;100883.69;;;8.91;55.36
50349;BME280;36250;48.740;22.174;2024-03-08T01:36:46;100883.84;;;8.96;55.42
50349;BME280;36250;48.740;22.174;2024-03-08T01:39:11;100890.78;;;8.92;55.10
50349;BME280;36250;48.740;22.174;2024-03-08T01:41:36;100887.13;;;8.80;55.55
50349;BME280;36250;48.740;22.174;2024-03-08T01:44:02;100889.34;;;8.89;55.34
50349;BME280;36250;48.740;22.174;2024-03-08T01:46:28;100879.50;;;8.95;55.02
50349;BME280;36250;48.740;22.174;2024-03-08T01:48:54;100890.63;;;8.87;54.76
50349;BME280;36250;48.740;22.174;2024-03-08T01:51:20;100884.13;;;8.88;54.52
50349;BME280;36250;48.740;22.174;2024-03-08T01:53:47;100887.47;;;8.90;54.43
50349;BME280;36250;48.740;22.174;2024-03-08T01:56:13;100881.72;;;8.80;54.50
50349;BME280;36250;48.740;22.174;2024-03-08T01:58:41;100881.28;;;8.51;52.73
50349;BME280;36250;48.740;22.174;2024-03-08T02:01:08;100889.44;;;8.51;53.14
50349;BME280;36250;48.740;22.174;2024-03-08T02:03:35;100886.22;;;8.61;54.04
50349;BME280;36250;48.740;22.174;2024-03-08T02:06:00;100885.91;;;8.76;53.08
50349;BME280;36250;48.740;22.174;2024-03-08T02:08:26;100884.25;;;8.75;52.22
50349;BME280;36250;48.740;22.174;2024-03-08T02:10:51;100888.44;;;8.71;50.59
50349;BME280;36250;48.740;22.174;2024-03-08T02:13:17;100889.69;;;8.75;49.48
50349;BME280;36250;48.740;22.174;2024-03-08T02:15:56;100893.88;;;8.71;49.68
50349;BME280;36250;48.740;22.174;2024-03-08T02:18:22;100887.91;;;8.87;49.94
50349;BME280;36250;48.740;22.174;2024-03-08T02:20:55;100884.00;;;9.01;49.30
50349;BME280;36250;48.740;22.174;2024-03-08T02:23:21;100880.84;;;9.04;48.43
50349;BME280;36250;48.740;22.174;2024-03-08T02:25:47;100867.59;;;9.14;48.77
50349;BME280;36250;48.740;22.174;2024-03-08T02:28:13;100869.72;;;9.12;48.75
50349;BME280;36250;48.740;22.174;2024-03-08T02:30:39;100874.22;;;9.18;48.51
50349;BME280;36250;48.740;22.174;2024-03-08T02:33:05;100867.13;;;9.17;48.12
50349;BME280;36250;48.740;22.174;2024-03-08T02:35:35;100862.47;;;9.24;48.15
50349;BME280;36250;48.740;22.174;2024-03-08T02:38:00;100867.13;;;9.17;48.07
50349;BME280;36250;48.740;22.174;2024-03-08T02:40:26;100867.38;;;9.15;47.89
50349;BME280;36250;48.740;22.174;2024-03-08T02:42:51;100865.66;;;9.21;47.72
50349;BME280;36250;48.740;22.174;2024-03-08T02:45:17;100880.41;;;9.25;47.68
50349;BME280;36250;48.740;22.174;2024-03-08T02:47:43;100869.63;;;9.18;48.30
50349;BME280;36250;48.740;22.174;2024-03-08T02:50:08;100873.78;;;9.21;47.87
50349;BME280;36250;48.740;22.174;2024-03-08T02:52:34;100880.59;;;9.12;47.63
50349;BME280;36250;48.740;22.174;2024-03-08T02:55:01;100871.34;;;8.95;47.93
50349;BME280;36250;48.740;22.174;2024-03-08T02:57:26;100881.22;;;9.07;48.31
50349;BME280;36250;48.740;22.174;2024-03-08T02:59:53;100872.56;;;9.17;48.08
50349;BME280;36250;48.740;22.174;2024-03-08T03:02:18;100877.38;;;9.15;47.82
50349;BME280;36250;48.740;22.174;2024-03-08T03:04:44;100877.22;;;9.10;47.97
50349;BME280;36250;48.740;22.174;2024-03-08T03:07:09;100870.19;;;9.02;48.09
50349;BME280;36250;48.740;22.174;2024-03-08T03:09:36;100873.91;;;9.08;48.26
50349;BME280;36250;48.740;22.174;2024-03-08T03:12:01;100881.06;;;9.02;47.90
50349;BME280;36250;48.740;22.174;2024-03-08T03:14:27;100872.72;;;9.04;47.64
50349;BME280;36250;48.740;22.174;2024-03-08T03:16:53;100879.31;;;8.90;48.40
50349;BME280;36250;48.740;22.174;2024-03-08T03:19:19;100881.31;;;8.76;49.68
50349;BME280;36250;48.740;22.174;2024-03-08T03:21:45;100880.13;;;8.66;51.90
50349;BME280;36250;48.740;22.174;2024-03-08T03:24:11;100872.47;;;8.63;51.97
50349;BME280;36250;48.740;22.174;2024-03-08T03:26:37;100876.53;;;8.47;52.63
50349;BME280;36250;48.740;22.174;2024-03-08T03:29:05;100878.69;;;8.38;53.12
50349;BME280;36250;48.740;22.174;2024-03-08T03:31:31;100883.66;;;8.41;53.83
50349;BME280;36250;48.740;22.174;2024-03-08T03:33:57;100891.00;;;8.34;53.98
50349;BME280;36250;48.740;22.174;2024-03-08T03:36:27;100895.78;;;8.39;54.18
50349;BME280;36250;48.740;22.174;2024-03-08T03:38:53;100890.94;;;8.47;53.83
50349;BME280;36250;48.740;22.174;2024-03-08T03:41:30;100884.97;;;8.32;54.68
50349;BME280;36250;48.740;22.174;2024-03-08T03:43:55;100890.84;;;8.29;54.60
50349;BME280;36250;48.740;22.174;2024-03-08T03:46:20;100887.72;;;8.19;54.58
50349;BME280;36250;48.740;22.174;2024-03-08T03:48:46;100887.19;;;8.11;54.00
50349;BME280;36250;48.740;22.174;2024-03-08T03:51:11;100890.03;;;8.22;52.85
50349;BME280;36250;48.740;22.174;2024-03-08T03:53:37;100889.56;;;8.32;54.10
50349;BME280;36250;48.740;22.174;2024-03-08T03:56:03;100885.88;;;8.20;54.58
50349;BME280;36250;48.740;22.174;2024-03-08T03:58:32;100884.16;;;8.25;54.46
50349;BME280;36250;48.740;22.174;2024-03-08T04:00:57;100884.59;;;8.29;54.40
50349;BME280;36250;48.740;22.174;2024-03-08T04:03:23;100891.47;;;8.31;53.86
50349;BME280;36250;48.740;22.174;2024-03-08T04:05:48;100883.34;;;8.31;53.64
50349;BME280;36250;48.740;22.174;2024-03-08T04:08:13;100880.00;;;8.29;54.21
50349;BME280;36250;48.740;22.174;2024-03-08T04:10:39;100892.75;;;8.29;54.19
50349;BME280;36250;48.740;22.174;2024-03-08T04:13:06;100883.94;;;8.33;54.44
50349;BME280;36250;48.740;22.174;2024-03-08T04:15:32;100891.19;;;8.39;54.29
50349;BME280;36250;48.740;22.174;2024-03-08T04:17:57;100890.34;;;8.39;54.67
50349;BME280;36250;48.740;22.174;2024-03-08T04:20:22;100895.22;;;8.30;54.57
50349;BME280;36250;48.740;22.174;2024-03-08T04:22:48;100892.47;;;8.37;54.28
50349;BME280;36250;48.740;22.174;2024-03-08T04:25:14;100892.69;;;8.35;54.73
50349;BME280;36250;48.740;22.174;2024-03-08T04:27:40;100889.06;;;8.48;54.88
50349;BME280;36250;48.740;22.174;2024-03-08T04:30:06;100897.56;;;8.58;54.27
50349;BME280;36250;48.740;22.174;2024-03-08T04:32:34;100895.81;;;8.64;54.43
50349;BME280;36250;48.740;22.174;2024-03-08T04:35:00;100893.03;;;8.45;53.00
50349;BME280;36250;48.740;22.174;2024-03-08T04:37:29;100891.06;;;8.59;53.17
50349;BME280;36250;48.740;22.174;2024-03-08T04:39:58;100893.16;;;8.57;52.49
50349;BME280;36250;48.740;22.174;2024-03-08T04:42:24;100899.41;;;8.57;51.25
50349;BME280;36250;48.740;22.174;2024-03-08T04:44:50;100899.78;;;8.61;51.18
50349;BME280;36250;48.740;22.174;2024-03-08T04:47:15;100887.25;;;8.35;51.14
50349;BME280;36250;48.740;22.174;2024-03-08T04:49:43;100888.22;;;8.47;50.76
50349;BME280;36250;48.740;22.174;2024-03-08T04:52:08;100895.69;;;8.52;50.85
50349;BME280;36250;48.740;22.174;2024-03-08T04:54:34;100896.91;;;8.56;49.97
50349;BME280;36250;48.740;22.174;2024-03-08T04:56:59;100889.19;;;8.28;49.47
50349;BME280;36250;48.740;22.174;2024-03-08T04:59:26;100892.44;;;8.43;49.58
50349;BME280;36250;48.740;22.174;2024-03-08T05:01:51;100896.06;;;8.31;49.44
50349;BME280;36250;48.740;22.174;2024-03-08T05:04:17;100897.47;;;8.40;49.94
50349;BME280;36250;48.740;22.174;2024-03-08T05:06:42;100896.97;;;8.49;49.18
50349;BME280;36250;48.740;22.174;2024-03-08T05:09:07;100903.16;;;8.56;49.25
50349;BME280;36250;48.740;22.174;2024-03-08T05:11:42;100895.63;;;8.58;49.24
50349;BME280;36250;48.740;22.174;2024-03-08T05:14:09;100900.19;;;8.65;48.99
50349;BME280;36250;48.740;22.174;2024-03-08T05:16:34;100910.81;;;8.66;48.79
50349;BME280;36250;48.740;22.174;2024-03-08T05:19:00;100909.50;;;8.50;49.29
50349;BME280;36250;48.740;22.174;2024-03-08T05:21:25;100902.03;;;8.39;49.09
50349;BME280;36250;48.740;22.174;2024-03-08T05:23:51;100909.16;;;8.40;49.23
50349;BME280;36250;48.740;22.174;2024-03-08T05:26:16;100906.03;;;8.37;49.57
50349;BME280;36250;48.740;22.174;2024-03-08T05:28:42;100907.38;;;8.52;49.17
50349;BME280;36250;48.740;22.174;2024-03-08T05:31:07;100909.63;;;8.24;51.08
50349;BME280;36250;48.740;22.174;2024-03-08T05:33:33;100921.78;;;8.15;52.65
50349;BME280;36250;48.740;22.174;2024-03-08T05:36:00;100922.19;;;8.19;54.20
50349;BME280;36250;48.740;22.174;2024-03-08T05:38:28;100919.25;;;8.20;54.67
50349;BME280;36250;48.740;22.174;2024-03-08T05:40:54;100919.91;;;8.16;54.02
50349;BME280;36250;48.740;22.174;2024-03-08T05:43:20;100923.63;;;8.21;54.08
50349;BME280;36250;48.740;22.174;2024-03-08T05:45:46;100925.28;;;8.22;54.28
50349;BME280;36250;48.740;22.174;2024-03-08T05:48:11;100916.31;;;8.22;54.54
50349;BME280;36250;48.740;22.174;2024-03-08T05:50:39;100916.03;;;8.36;53.28
50349;BME280;36250;48.740;22.174;2024-03-08T05:53:05;100920.00;;;8.40;53.58
50349;BME280;36250;48.740;22.174;2024-03-08T05:55:33;100921.88;;;8.40;53.80
50349;BME280;36250;48.740;22.174;2024-03-08T05:58:01;100934.41;;;8.34;54.53
50349;BME280;36250;48.740;22.174;2024-03-08T06:00:27;100924.03;;;8.56;54.40
50349;BME280;36250;48.740;22.174;2024-03-08T06:02:52;100932.66;;;8.53;54.72
50349;BME280;36250;48.740;22.174;2024-03-08T06:05:18;100929.94;;;8.46;55.49
50349;BME280;36250;48.740;22.174;2024-03-08T06:07:43;100933.00;;;8.63;54.88
50349;BME280;36250;48.740;22.174;2024-03-08T06:10:10;100938.09;;;8.78;54.59
50349;BME280;36250;48.740;22.174;2024-03-08T06:12:36;100938.09;;;8.78;54.55
50349;BME280;36250;48.740;22.174;2024-03-08T06:15:08;100941.38;;;8.86;54.35
50349;BME280;36250;48.740;22.174;2024-03-08T06:17:35;100931.44;;;8.98;53.76
50349;BME280;36250;48.740;22.174;2024-03-08T06:20:01;100939.84;;;8.90;53.53
50349;BME280;36250;48.740;22.174;2024-03-08T06:22:26;100934.50;;;8.84;53.98
50349;BME280;36250;48.740;22.174;2024-03-08T06:24:52;100940.97;;;8.83;54.16
50349;BME280;36250;48.740;22.174;2024-03-08T06:27:19;100941.84;;;8.77;54.01
50349;BME280;36250;48.740;22.174;2024-03-08T06:29:44;100943.91;;;8.81;54.14
50349;BME280;36250;48.740;22.174;2024-03-08T06:32:10;100945.19;;;8.79;54.05
50349;BME280;36250;48.740;22.174;2024-03-08T06:34:35;100942.81;;;8.89;54.08
50349;BME280;36250;48.740;22.174;2024-03-08T06:37:01;100942.53;;;8.97;53.85
50349;BME280;36250;48.740;22.174;2024-03-08T06:39:27;100932.38;;;9.10;53.78
50349;BME280;36250;48.740;22.174;2024-03-08T06:41:53;100946.06;;;9.22;53.81
50349;BME280;36250;48.740;22.174;2024-03-08T06:44:19;100944.13;;;9.29;52.99
50349;BME280;36250;48.740;22.174;2024-03-08T06:46:47;100939.63;;;9.41;52.97
50349;BME280;36250;48.740;22.174;2024-03-08T06:49:13;100943.53;;;9.45;52.64
50349;BME280;36250;48.740;22.174;2024-03-08T06:51:38;100942.72;;;9.45;52.35
50349;BME280;36250;48.740;22.174;2024-03-08T06:54:06;100938.88;;;9.52;52.26
50349;BME280;36250;48.740;22.174;2024-03-08T06:56:34;100946.34;;;9.57;51.29
50349;BME280;36250;48.740;22.174;2024-03-08T06:58:59;100950.13;;;9.74;51.29
50349;BME280;36250;48.740;22.174;2024-03-08T07:01:25;100942.44;;;9.89;50.40
50349;BME280;36250;48.740;22.174;2024-03-08T07:03:50;100943.09;;;9.84;50.81
50349;BME280;36250;48.740;22.174;2024-03-08T07:06:18;100946.72;;;9.97;50.79
50349;BME280;36250;48.740;22.174;2024-03-08T07:08:44;100948.06;;;10.06;50.95
50349;BME280;36250;48.740;22.174;2024-03-08T07:11:11;100947.22;;;10.05;50.18
50349;BME280;36250;48.740;22.174;2024-03-08T07:13:37;100949.44;;;9.97;50.20
50349;BME280;36250;48.740;22.174;2024-03-08T07:16:04;100947.41;;;9.92;50.23
50349;BME280;36250;48.740;22.174;2024-03-08T07:18:30;100949.91;;;9.93;50.13
50349;BME280;36250;48.740;22.174;2024-03-08T07:20:56;100950.34;;;10.09;50.18
50349;BME280;36250;48.740;22.174;2024-03-08T07:23:22;100950.19;;;10.04;49.92
50349;BME280;36250;48.740;22.174;2024-03-08T07:26:06;100955.03;;;10.02;49.23
50349;BME280;36250;48.740;22.174;2024-03-08T07:28:31;100958.22;;;10.17;49.16
50349;BME280;36250;48.740;22.174;2024-03-08T07:31:00;100953.66;;;10.29;48.10
50349;BME280;36250;48.740;22.174;2024-03-08T07:33:38;100952.28;;;10.38;48.53
50349;BME280;36250;48.740;22.174;2024-03-08T07:36:04;100963.19;;;10.49;48.00
50349;BME280;36250;48.740;22.174;2024-03-08T07:38:30;100952.38;;;10.61;47.56
50349;BME280;36250;48.740;22.174;2024-03-08T07:40:55;100956.59;;;10.57;47.02
50349;BME280;36250;48.740;22.174;2024-03-08T07:43:22;100958.56;;;10.80;46.98
50349;BME280;36250;48.740;22.174;2024-03-08T07:45:47;100957.53;;;10.92;47.19
50349;BME280;36250;48.740;22.174;2024-03-08T07:48:12;100961.47;;;11.08;46.71
50349;BME280;36250;48.740;22.174;2024-03-08T07:50:39;100959.34;;;11.10;46.65
50349;BME280;36250;48.740;22.174;2024-03-08T07:53:05;100972.84;;;11.05;47.88
50349;BME280;36250;48.740;22.174;2024-03-08T07:55:34;100958.84;;;11.01;48.22
50349;BME280;36250;48.740;22.174;2024-03-08T07:58:01;100964.75;;;10.98;48.61
50349;BME280;36250;48.740;22.174;2024-03-08T08:00:26;100961.19;;;10.86;48.06
50349;BME280;36250;48.740;22.174;2024-03-08T08:02:53;100958.13;;;10.94;48.32
50349;BME280;36250;48.740;22.174;2024-03-08T08:05:18;100965.34;;;11.00;48.10
50349;BME280;36250;48.740;22.174;2024-03-08T08:07:45;100962.53;;;11.07;47.69
50349;BME280;36250;48.740;22.174;2024-03-08T08:10:14;100960.03;;;11.05;47.49
50349;BME280;36250;48.740;22.174;2024-03-08T08:12:44;100960.66;;;11.07;47.71
50349;BME280;36250;48.740;22.174;2024-03-08T08:15:09;100957.69;;;11.20;46.82
50349;BME280;36250;48.740;22.174;2024-03-08T08:17:35;100957.22;;;11.23;46.22
50349;BME280;36250;48.740;22.174;2024-03-08T08:20:00;100955.91;;;11.14;46.75
50349;BME280;36250;48.740;22.174;2024-03-08T08:22:25;100952.72;;;11.41;46.20
50349;BME280;36250;48.740;22.174;2024-03-08T08:24:51;100954.50;;;11.47;46.75
50349;BME280;36250;48.740;22.174;2024-03-08T08:27:17;100955.56;;;11.46;45.48
50349;BME280;36250;48.740;22.174;2024-03-08T08:29:42;100952.13;;;11.39;46.19
50349;BME280;36250;48.740;22.174;2024-03-08T08:32:08;100946.31;;;11.58;45.35
50349;BME280;36250;48.740;22.174;2024-03-08T08:34:34;100951.53;;;11.83;45.21
50349;BME280;36250;48.740;22.174;2024-03-08T08:36:59;100952.84;;;12.20;44.30
50349;BME280;36250;48.740;22.174;2024-03-08T08:39:25;100953.06;;;12.59;43.72
50349;BME280;36250;48.740;22.174;2024-03-08T08:41:51;100951.16;;;12.59;42.90
50349;BME280;36250;48.740;22.174;2024-03-08T08:44:17;100952.13;;;12.53;43.29
50349;BME280;36250;48.740;22.174;2024-03-08T08:46:42;100954.34;;;12.39;43.79
50349;BME280;36250;48.740;22.174;2024-03-08T08:49:07;100950.66;;;11.94;42.75
50349;BME280;36250;48.740;22.174;2024-03-08T08:51:36;100954.59;;;12.26;43.23
50349;BME280;36250;48.740;22.174;2024-03-08T08:54:01;100950.41;;;12.07;42.87
50349;BME280;36250;48.740;22.174;2024-03-08T08:56:27;100946.53;;;12.31;43.35
50349;BME280;36250;48.740;22.174;2024-03-08T08:58:54;100950.34;;;12.75;43.46
50349;BME280;36250;48.740;22.174;2024-03-08T09:01:20;100948.00;;;13.12;42.14
50349;BME280;36250;48.740;22.174;2024-03-08T09:03:45;100944.13;;;13.08;42.23
50349;BME280;36250;48.740;22.174;2024-03-08T09:06:15;100936.78;;;12.97;42.39
50349;BME280;36250;48.740;22.174;2024-03-08T09:08:41;100943.69;;;13.16;41.12
50349;BME280;36250;48.740;22.174;2024-03-08T09:11:07;100940.78;;;13.39;40.82
50349;BME280;36250;48.740;22.174;2024-03-08T09:13:32;100941.09;;;13.43;41.14
50349;BME280;36250;48.740;22.174;2024-03-08T09:15:59;100936.16;;;13.40;40.55
50349;BME280;36250;48.740;22.174;2024-03-08T09:18:24;100940.78;;;13.06;41.02
50349;BME280;36250;48.740;22.174;2024-03-08T09:20:50;100940.13;;;13.15;41.22
50349;BME280;36250;48.740;22.174;2024-03-08T09:23:16;100937.91;;;13.67;41.18
50349;BME280;36250;48.740;22.174;2024-03-08T09:25:44;100935.69;;;13.64;39.86
50349;BME280;36250;48.740;22.174;2024-03-08T09:28:10;100933.50;;;13.45;40.99
50349;BME280;36250;48.740;22.174;2024-03-08T09:30:37;100930.25;;;13.86;40.61
50349;BME280;36250;48.740;22.174;2024-03-08T09:33:04;100925.63;;;13.70;40.39
50349;BME280;36250;48.740;22.174;2024-03-08T09:35:29;100931.06;;;13.48;40.78
50349;BME280;36250;48.740;22.174;2024-03-08T09:37:55;100931.78;;;13.60;40.61
50349;BME280;36250;48.740;22.174;2024-03-08T09:40:21;100928.13;;;13.55;40.35
50349;BME280;36250;48.740;22.174;2024-03-08T09:42:49;100925.03;;;13.46;40.45
50349;BME280;36250;48.740;22.174;2024-03-08T09:45:16;100928.06;;;13.66;39.77
50349;BME280;36250;48.740;22.174;2024-03-08T09:47:43;100922.59;;;13.50;40.17
50349;BME280;36250;48.740;22.174;2024-03-08T09:50:09;100915.88;;;13.57;40.44
50349;BME280;36250;48.740;22.174;2024-03-08T09:52:41;100919.31;;;13.69;40.14
50349;BME280;36250;48.740;22.174;2024-03-08T09:55:09;100920.34;;;13.63;40.47
50349;BME280;36250;48.740;22.174;2024-03-08T09:57:36;100907.31;;;13.92;39.73
50349;BME280;36250;48.740;22.174;2024-03-08T10:00:03;100916.72;;;14.01;39.09
50349;BME280;36250;48.740;22.174;2024-03-08T10:02:37;100915.78;;;13.69;39.81
50349;BME280;36250;48.740;22.174;2024-03-08T10:05:02;100917.81;;;13.78;40.77
50349;BME280;36250;48.740;22.174;2024-03-08T10:07:28;100920.03;;;13.81;40.43
50349;BME280;36250;48.740;22.174;2024-03-08T10:09:54;100917.38;;;14.08;40.04
50349;BME280;36250;48.740;22.174;2024-03-08T10:12:20;100920.97;;;14.14;39.94
50349;BME280;36250;48.740;22.174;2024-03-08T10:14:45;100928.19;;;13.98;40.58
50349;BME280;36250;48.740;22.174;2024-03-08T10:17:12;100923.34;;;13.83;40.20
50349;BME280;36250;48.740;22.174;2024-03-08T10:19:37;100924.94;;;13.79;40.83
50349;BME280;36250;48.740;22.174;2024-03-08T10:22:04;100921.38;;;14.01;40.81
50349;BME280;36250;48.740;22.174;2024-03-08T10:24:30;100928.50;;;14.02;40.28
50349;BME280;36250;48.740;22.174;2024-03-08T10:27:02;100929.13;;;14.09;40.31
50349;BME280;36250;48.740;22.174;2024-03-08T10:29:30;100923.16;;;14.12;40.15
50349;BME280;36250;48.740;22.174;2024-03-08T10:31:56;100926.94;;;14.06;39.62
50349;BME280;36250;48.740;22.174;2024-03-08T10:34:22;100927.56;;;14.13;40.44
50349;BME280;36250;48.740;22.174;2024-03-08T10:36:50;100923.84;;;14.24;39.85
50349;BME280;36250;48.740;22.174;2024-03-08T10:39:25;100922.53;;;14.05;39.82
50349;BME280;36250;48.740;22.174;2024-03-08T10:41:56;100915.72;;;14.07;40.00
50349;BME280;36250;48.740;22.174;2024-03-08T10:47:02;100913.44;;;14.26;39.76
50349;BME280;36250;48.740;22.174;2024-03-08T10:49:32;100915.66;;;14.02;40.03
50349;BME280;36250;48.740;22.174;2024-03-08T10:52:04;100906.00;;;14.21;39.98
50349;BME280;36250;48.740;22.174;2024-03-08T10:54:31;100907.56;;;14.34;38.93
50349;BME280;36250;48.740;22.174;2024-03-08T10:56:57;100899.09;;;14.62;39.00
50349;BME280;36250;48.740;22.174;2024-03-08T10:59:24;100897.28;;;15.09;38.69
50349;BME280;36250;48.740;22.174;2024-03-08T11:01:50;100894.81;;;15.08;38.12
50349;BME280;36250;48.740;22.174;2024-03-08T11:04:16;100898.13;;;14.78;38.38
50349;BME280;36250;48.740;22.174;2024-03-08T11:06:45;100902.31;;;14.86;38.54
50349;BME280;36250;48.740;22.174;2024-03-08T11:09:38;100891.38;;;14.91;38.31
50349;BME280;36250;48.740;22.174;2024-03-08T11:14:47;100890.50;;;14.85;37.60
50349;BME280;36250;48.740;22.174;2024-03-08T11:17:14;100894.03;;;14.81;38.62
50349;BME280;36250;48.740;22.174;2024-03-08T11:19:46;100884.06;;;14.70;39.78
50349;BME280;36250;48.740;22.174;2024-03-08T11:22:26;100888.28;;;14.51;41.00
50349;BME280;36250;48.740;22.174;2024-03-08T11:24:53;100894.91;;;14.55;40.62
50349;BME280;36250;48.740;22.174;2024-03-08T11:27:18;100891.47;;;14.69;41.63
50349;BME280;36250;48.740;22.174;2024-03-08T11:29:59;100887.81;;;14.32;41.76
50349;BME280;36250;48.740;22.174;2024-03-08T11:32:28;100882.28;;;14.54;41.93
50349;BME280;36250;48.740;22.174;2024-03-08T11:34:54;100890.28;;;14.12;42.09
50349;BME280;36250;48.740;22.174;2024-03-08T11:37:21;100882.13;;;14.38;42.09
50349;BME280;36250;48.740;22.174;2024-03-08T11:42:14;100883.75;;;14.13;40.63
50349;BME280;36250;48.740;22.174;2024-03-08T11:44:39;100881.00;;;14.13;40.63
50349;BME280;36250;48.740;22.174;2024-03-08T11:47:09;100881.97;;;14.02;40.67
50349;BME280;36250;48.740;22.174;2024-03-08T11:49:36;100882.03;;;14.07;40.25
50349;BME280;36250;48.740;22.174;2024-03-08T11:52:01;100864.59;;;14.13;40.03
50349;BME280;36250;48.740;22.174;2024-03-08T11:54:28;100870.06;;;14.13;39.61
50349;BME280;36250;48.740;22.174;2024-03-08T11:56:58;100866.91;;;14.26;40.72
50349;BME280;36250;48.740;22.174;2024-03-08T11:59:27;100864.06;;;14.37;38.84
50349;BME280;36250;48.740;22.174;2024-03-08T12:02:05;100858.81;;;14.36;38.78
50349;BME280;36250;48.740;22.174;2024-03-08T12:04:31;100861.59;;;14.41;39.66
50349;BME280;36250;48.740;22.174;2024-03-08T12:06:59;100852.03;;;14.43;39.33
50349;BME280;36250;48.740;22.174;2024-03-08T12:09:33;100847.72;;;14.48;39.93
50349;BME280;36250;48.740;22.174;2024-03-08T12:12:01;100857.50;;;14.70;39.27
50349;BME280;36250;48.740;22.174;2024-03-08T12:14:28;100854.31;;;14.83;39.20
50349;BME280;36250;48.740;22.174;2024-03-08T12:16:53;100846.09;;;14.83;38.52
50349;BME280;36250;48.740;22.174;2024-03-08T12:19:19;100842.25;;;14.79;39.55
50349;BME280;36250;48.740;22.174;2024-03-08T12:21:45;100843.47;;;14.98;39.17
50349;BME280;36250;48.740;22.174;2024-03-08T12:24:15;100835.06;;;15.15;39.25
50349;BME280;36250;48.740;22.174;2024-03-08T12:26:45;100839.25;;;15.23;38.57
50349;BME280;36250;48.740;22.174;2024-03-08T12:29:18;100839.78;;;15.25;38.59
50349;BME280;36250;48.740;22.174;2024-03-08T12:31:46;100844.84;;;15.43;38.12
50349;BME280;36250;48.740;22.174;2024-03-08T12:34:12;100832.75;;;15.39;37.90
50349;BME280;36250;48.740;22.174;2024-03-08T12:36:44;100841.34;;;15.47;38.12
50349;BME280;36250;48.740;22.174;2024-03-08T12:39:10;100840.28;;;15.58;36.82
50349;BME280;36250;48.740;22.174;2024-03-08T12:41:40;100829.53;;;15.47;37.42
50349;BME280;36250;48.740;22.174;2024-03-08T12:44:06;100837.66;;;15.37;37.12
50349;BME280;36250;48.740;22.174;2024-03-08T12:46:32;100834.94;;;15.37;37.11
50349;BME280;36250;48.740;22.174;2024-03-08T12:48:58;100835.34;;;15.19;37.31
50349;BME280;36250;48.740;22.174;2024-03-08T12:51:24;100817.84;;;15.25;37.03